Time;durP1;ratioP1;P1;durP2;ratioP2;P2;SDS_P1;SDS_P2;PMS_P1;PMS_P2;Temp;Humidity;BMP_temperature;BMP_pressure;BME280_temperature;BME280_humidity;BME280_pressure;Samples;Min_cycle;Max_cycle;Signal;HPM_P1;HPM_P2
2022/03/25 00:00:10;;;;;;;67.93;34.55;;;10.90;80.00;;;;;;4947995;28;20089;-66
2022/03/25 00:02:39;;;;;;;73.18;37.33;;;10.80;80.00;;;;;;4950024;28;20042;-66
2022/03/25 00:05:05;;;;;;;70.63;34.85;;;10.90;80.20;;;;;;4950566;28;20035;-66
2022/03/25 00:07:32;;;;;;;76.30;36.28;;;10.90;80.20;;;;;;4949585;28;20027;-66
2022/03/25 00:09:58;;;;;;;72.88;35.80;;;10.80;80.20;;;;;;4938734;28;20043;-66
2022/03/25 00:12:26;;;;;;;75.88;36.90;;;10.80;80.30;;;;;;4949879;29;20055;-66
2022/03/25 00:14:52;;;;;;;70.93;36.67;;;10.80;80.40;;;;;;4946269;28;20036;-66
2022/03/25 00:17:17;;;;;;;69.63;36.60;;;10.70;80.50;;;;;;4940245;28;20538;-66
2022/03/25 00:19:43;;;;;;;66.57;36.30;;;10.70;80.50;;;;;;4948936;28;20196;-66
2022/03/25 00:22:09;;;;;;;67.45;35.30;;;10.70;80.60;;;;;;4949883;28;20062;-66
2022/03/25 00:24:34;;;;;;;75.10;36.75;;;10.70;80.70;;;;;;4945546;28;20119;-66
2022/03/25 00:27:00;;;;;;;74.43;36.47;;;10.60;80.70;;;;;;4940687;28;20031;-66
2022/03/25 00:29:26;;;;;;;72.22;36.38;;;10.60;80.80;;;;;;4948676;28;20445;-66
2022/03/25 00:31:52;;;;;;;66.18;34.55;;;10.60;80.90;;;;;;4949639;28;20047;-66
2022/03/25 00:34:18;;;;;;;73.40;36.28;;;10.60;81.00;;;;;;4948952;28;20375;-66
2022/03/25 00:36:44;;;;;;;66.28;34.97;;;10.50;81.10;;;;;;4949513;28;20490;-66
2022/03/25 00:39:10;;;;;;;64.72;34.88;;;10.50;81.10;;;;;;4949005;28;20066;-66
2022/03/25 00:41:36;;;;;;;66.43;35.88;;;10.50;81.20;;;;;;4936437;28;20070;-66
2022/03/25 00:44:05;;;;;;;66.32;35.35;;;10.50;81.30;;;;;;4947893;28;20163;-66
2022/03/25 00:46:31;;;;;;;72.50;36.20;;;10.50;81.30;;;;;;4948151;28;20388;-66
2022/03/25 00:48:57;;;;;;;74.60;36.17;;;10.40;81.30;;;;;;4935817;28;20031;-66
2022/03/25 00:51:24;;;;;;;75.75;35.85;;;10.40;81.30;;;;;;4950830;28;20039;-66
2022/03/25 00:53:50;;;;;;;72.68;35.15;;;10.40;81.40;;;;;;4949565;28;20130;-66
2022/03/25 00:56:15;;;;;;;76.50;36.17;;;10.40;81.40;;;;;;4942954;28;20036;-66
2022/03/25 00:58:42;;;;;;;70.85;35.58;;;10.40;81.50;;;;;;4933215;28;20471;-66
2022/03/25 01:01:08;;;;;;;71.70;34.90;;;10.30;81.30;;;;;;4941192;28;20422;-66
2022/03/25 01:03:35;;;;;;;68.57;33.65;;;10.30;81.40;;;;;;4951743;28;20035;-66
2022/03/25 01:06:01;;;;;;;75.93;34.38;;;10.30;81.50;;;;;;4951830;28;20035;-66
2022/03/25 01:08:27;;;;;;;71.93;34.50;;;10.30;81.50;;;;;;4939900;28;20023;-66
2022/03/25 01:10:53;;;;;;;74.47;35.63;;;10.30;81.60;;;;;;4951382;28;20506;-66
2022/03/25 01:13:21;;;;;;;73.47;36.42;;;10.30;81.60;;;;;;4935100;28;20036;-66
2022/03/25 01:15:47;;;;;;;73.95;36.33;;;10.20;81.60;;;;;;4943516;28;20482;-66
2022/03/25 01:18:12;;;;;;;68.75;33.35;;;10.20;81.60;;;;;;4947908;28;20040;-66
2022/03/25 01:20:38;;;;;;;73.25;34.53;;;10.20;81.70;;;;;;4950557;28;20047;-66
2022/03/25 01:23:06;;;;;;;68.60;34.00;;;10.10;81.80;;;;;;4947506;28;20034;-66
2022/03/25 01:25:33;;;;;;;78.28;36.85;;;10.10;81.80;;;;;;4942429;28;20047;-66
2022/03/25 01:27:58;;;;;;;65.47;34.30;;;10.10;82.00;;;;;;4946066;28;20028;-66
2022/03/25 01:30:25;;;;;;;72.88;35.88;;;10.00;82.00;;;;;;4942227;28;20031;-66
2022/03/25 01:32:51;;;;;;;70.40;36.72;;;10.00;82.00;;;;;;4951098;28;20023;-66
2022/03/25 01:35:16;;;;;;;73.60;37.25;;;10.00;82.10;;;;;;4950980;28;20103;-66
2022/03/25 01:37:45;;;;;;;69.60;35.05;;;10.00;82.20;;;;;;4949313;28;20426;-66
2022/03/25 01:40:14;;;;;;;70.80;35.10;;;9.90;82.20;;;;;;4941767;28;20027;-66
2022/03/25 01:42:43;;;;;;;66.75;35.97;;;10.00;82.10;;;;;;4951658;28;20019;-66
2022/03/25 01:45:11;;;;;;;77.57;36.33;;;10.00;81.90;;;;;;4951528;28;20031;-66
2022/03/25 01:47:38;;;;;;;70.18;35.60;;;10.00;82.10;;;;;;4951004;28;20082;-66
2022/03/25 01:50:12;;;;;;;70.75;35.05;;;9.90;82.10;;;;;;4950629;28;20045;-66
2022/03/25 01:52:39;;;;;;;83.22;38.50;;;9.90;82.20;;;;;;4945561;28;20036;-66
2022/03/25 01:55:21;;;;;;;71.32;36.00;;;9.90;82.30;;;;;;4949046;28;20035;-66
2022/03/25 01:57:49;;;;;;;75.75;35.20;;;9.90;82.30;;;;;;4950283;28;20050;-66
2022/03/25 02:00:16;;;;;;;76.65;34.90;;;9.90;82.30;;;;;;4949402;28;20066;-66
2022/03/25 02:02:48;;;;;;;71.95;35.22;;;9.80;82.10;;;;;;4948566;28;20596;-66
2022/03/25 02:05:15;;;;;;;69.68;33.50;;;9.90;82.10;;;;;;4938903;28;20024;-66
2022/03/25 02:07:41;;;;;;;73.63;34.63;;;9.80;81.90;;;;;;4947758;28;20089;-66
2022/03/25 02:10:08;;;;;;;64.57;33.40;;;9.80;81.70;;;;;;4940174;28;20031;-66
2022/03/25 02:12:35;;;;;;;69.43;33.67;;;9.80;81.50;;;;;;4950480;28;20109;-66
2022/03/25 02:15:02;;;;;;;71.38;34.08;;;9.70;81.20;;;;;;4950405;28;20109;-66
2022/03/25 02:17:29;;;;;;;69.18;33.33;;;9.70;81.00;;;;;;4982017;28;20394;-66
2022/03/25 02:19:56;;;;;;;67.68;33.90;;;9.70;80.80;;;;;;4949230;28;20035;-66
2022/03/25 02:22:22;;;;;;;70.93;34.90;;;9.70;80.60;;;;;;4937331;28;20054;-66
2022/03/25 02:24:49;;;;;;;62.90;31.58;;;9.70;80.50;;;;;;4939003;28;20035;-66
2022/03/25 02:27:17;;;;;;;70.50;33.20;;;9.70;80.50;;;;;;4952823;28;20041;-66
2022/03/25 02:29:43;;;;;;;69.60;33.28;;;9.70;80.50;;;;;;4949915;28;20047;-66
2022/03/25 02:32:10;;;;;;;61.20;30.58;;;9.60;80.30;;;;;;4968072;28;20045;-66
2022/03/25 02:34:37;;;;;;;63.33;31.35;;;9.70;80.20;;;;;;4949205;28;20027;-66
2022/03/25 02:37:04;;;;;;;64.85;31.73;;;9.60;80.10;;;;;;4951115;28;20050;-66
2022/03/25 02:39:31;;;;;;;60.72;30.73;;;9.60;80.20;;;;;;4982100;28;20390;-66
2022/03/25 02:41:57;;;;;;;59.13;29.80;;;9.60;80.30;;;;;;4977923;28;20093;-66
2022/03/25 02:44:23;;;;;;;63.60;31.60;;;9.60;80.40;;;;;;4940648;28;20030;-66
2022/03/25 02:46:51;;;;;;;62.35;30.88;;;9.50;80.50;;;;;;4945405;28;20059;-66
2022/03/25 02:49:19;;;;;;;64.93;31.77;;;9.60;80.60;;;;;;4929866;28;20513;-66
2022/03/25 02:51:44;;;;;;;61.47;31.75;;;9.50;80.60;;;;;;4944165;28;20131;-66
2022/03/25 02:54:10;;;;;;;66.97;31.10;;;9.50;81.40;;;;;;4931864;28;20081;-66
2022/03/25 02:56:36;;;;;;;68.25;33.10;;;9.50;80.90;;;;;;4943548;28;20205;-66
2022/03/25 02:59:01;;;;;;;64.55;30.02;;;9.40;80.80;;;;;;4942705;28;20031;-66
2022/03/25 03:01:27;;;;;;;60.50;30.60;;;9.40;80.70;;;;;;4949823;28;20054;-66
2022/03/25 03:03:54;;;;;;;59.53;29.42;;;9.40;80.60;;;;;;4950038;28;20510;-66
2022/03/25 03:06:19;;;;;;;56.90;28.35;;;9.40;80.60;;;;;;4949930;28;20113;-66
2022/03/25 03:08:45;;;;;;;63.67;31.05;;;9.30;80.50;;;;;;4947640;28;20035;-66
2022/03/25 03:11:12;;;;;;;69.50;31.33;;;9.30;80.60;;;;;;4990245;28;20104;-66
2022/03/25 03:13:38;;;;;;;59.50;30.40;;;9.30;80.80;;;;;;4991206;28;20425;-66
2022/03/25 03:16:04;;;;;;;59.13;31.00;;;9.20;80.80;;;;;;5005635;28;20079;-66
2022/03/25 03:18:30;;;;;;;61.63;30.75;;;9.20;81.00;;;;;;4977719;28;20039;-66
2022/03/25 03:20:58;;;;;;;57.08;29.08;;;9.20;81.00;;;;;;4950447;28;20070;-66
2022/03/25 03:23:23;;;;;;;63.00;31.33;;;9.20;81.10;;;;;;4983207;28;20119;-66
2022/03/25 03:25:49;;;;;;;61.53;30.83;;;9.20;81.30;;;;;;4942566;28;20125;-66
2022/03/25 03:28:15;;;;;;;60.60;28.85;;;9.20;81.50;;;;;;4984419;28;20069;-66
2022/03/25 03:30:40;;;;;;;58.22;29.17;;;9.10;81.50;;;;;;4941862;28;20032;-66
2022/03/25 03:33:06;;;;;;;65.30;30.60;;;9.10;81.70;;;;;;4940910;28;20027;-66
2022/03/25 03:35:34;;;;;;;52.15;27.45;;;9.10;81.80;;;;;;4935392;28;20048;-66
2022/03/25 03:38:00;;;;;;;54.90;27.48;;;9.00;81.70;;;;;;4940656;28;20031;-66
2022/03/25 03:40:25;;;;;;;57.55;28.08;;;9.00;81.70;;;;;;4945975;28;20040;-66
2022/03/25 03:42:51;;;;;;;53.75;26.08;;;9.00;81.70;;;;;;4930899;28;20028;-66
2022/03/25 03:45:18;;;;;;;56.80;26.77;;;9.00;81.80;;;;;;5004727;28;20053;-66
2022/03/25 03:47:44;;;;;;;53.90;25.50;;;9.00;81.90;;;;;;4972029;28;20029;-66
2022/03/25 03:50:15;;;;;;;56.78;26.75;;;9.00;82.00;;;;;;4957789;28;20032;-66
2022/03/25 03:52:42;;;;;;;53.97;25.65;;;8.90;82.00;;;;;;4949414;28;20031;-66
2022/03/25 03:55:09;;;;;;;55.00;26.00;;;8.90;82.60;;;;;;4949330;28;20027;-66
2022/03/25 03:57:36;;;;;;;51.83;25.13;;;8.90;81.90;;;;;;4948816;28;20039;-66
2022/03/25 04:00:10;;;;;;;52.92;24.38;;;8.90;81.90;;;;;;4949777;28;20089;-65
2022/03/25 04:02:41;;;;;;;51.50;25.35;;;8.90;82.10;;;;;;4936573;28;20105;-66
2022/03/25 04:05:07;;;;;;;46.50;23.98;;;8.80;82.10;;;;;;4949600;28;20038;-66
2022/03/25 04:07:39;;;;;;;44.95;25.02;;;8.80;82.20;;;;;;4949719;28;20122;-66
2022/03/25 04:10:05;;;;;;;49.35;25.08;;;8.80;82.30;;;;;;4949974;28;20066;-66
2022/03/25 04:12:31;;;;;;;51.30;24.30;;;8.80;82.30;;;;;;4944782;28;20063;-66
2022/03/25 04:14:56;;;;;;;42.90;22.77;;;8.80;82.40;;;;;;4930735;28;20471;-65
2022/03/25 04:17:23;;;;;;;48.58;24.17;;;8.80;82.50;;;;;;4930839;28;20043;-66
2022/03/25 04:19:49;;;;;;;48.53;23.33;;;8.70;82.60;;;;;;4984684;28;20399;-66
2022/03/25 04:22:15;;;;;;;47.22;24.23;;;8.70;82.60;;;;;;4958905;28;20058;-66
2022/03/25 04:24:40;;;;;;;53.05;25.27;;;8.70;82.70;;;;;;4948678;28;20035;-66
2022/03/25 04:27:06;;;;;;;48.00;24.33;;;8.70;82.70;;;;;;4951375;28;20040;-66
2022/03/25 04:29:31;;;;;;;50.25;23.73;;;8.70;82.70;;;;;;4953067;28;20038;-66
2022/03/25 04:31:57;;;;;;;56.10;25.58;;;8.60;82.60;;;;;;4952783;28;20497;-66
2022/03/25 04:34:23;;;;;;;50.70;23.05;;;8.70;82.60;;;;;;4952461;28;20118;-66
2022/03/25 04:36:48;;;;;;;48.15;24.00;;;8.60;82.60;;;;;;4952741;28;20077;-66
2022/03/25 04:39:14;;;;;;;48.70;24.27;;;8.70;82.60;;;;;;4946037;28;20459;-66
2022/03/25 04:41:39;;;;;;;50.03;24.55;;;8.60;82.40;;;;;;4932846;28;20040;-65
2022/03/25 04:44:05;;;;;;;49.20;23.63;;;8.70;82.40;;;;;;4940541;28;20472;-66
2022/03/25 04:46:31;;;;;;;45.88;23.15;;;8.60;82.30;;;;;;4939700;28;20078;-66
2022/03/25 04:48:56;;;;;;;50.53;24.08;;;8.60;82.30;;;;;;4951222;28;20176;-66
2022/03/25 04:51:24;;;;;;;54.03;25.33;;;8.60;82.20;;;;;;4952514;28;20027;-66
2022/03/25 04:53:50;;;;;;;46.38;22.50;;;8.60;82.20;;;;;;4951980;28;20027;-66
2022/03/25 04:56:16;;;;;;;42.17;21.23;;;8.60;82.00;;;;;;4952038;28;20031;-66
2022/03/25 04:58:41;;;;;;;43.38;22.00;;;8.60;81.80;;;;;;4952839;28;20493;-66
2022/03/25 05:01:07;;;;;;;47.35;22.20;;;8.60;82.20;;;;;;4951553;28;20511;-66
2022/03/25 05:03:33;;;;;;;51.08;25.00;;;8.60;81.50;;;;;;4952972;28;20105;-66
2022/03/25 05:05:58;;;;;;;46.08;24.25;;;8.50;81.40;;;;;;4949320;28;20024;-66
2022/03/25 05:08:27;;;;;;;51.08;24.60;;;8.50;81.50;;;;;;4942833;28;20360;-66
2022/03/25 05:10:52;;;;;;;50.40;23.92;;;8.50;81.50;;;;;;4952539;28;20085;-66
2022/03/25 05:13:19;;;;;;;54.97;25.23;;;8.50;82.20;;;;;;4952520;28;20032;-66
2022/03/25 05:15:48;;;;;;;45.67;23.75;;;8.40;81.60;;;;;;4951687;28;20054;-66
2022/03/25 05:18:17;;;;;;;57.53;26.80;;;8.50;81.70;;;;;;4985309;28;20072;-66
2022/03/25 05:20:43;;;;;;;54.00;25.55;;;8.40;81.70;;;;;;4950105;28;20058;-66
2022/03/25 05:23:08;;;;;;;52.60;23.80;;;8.40;81.70;;;;;;4957189;28;20118;-66
2022/03/25 05:25:34;;;;;;;60.70;27.05;;;8.40;82.20;;;;;;4946426;28;20043;-66
2022/03/25 05:28:00;;;;;;;50.58;25.83;;;8.40;81.80;;;;;;4951709;28;20032;-66
2022/03/25 05:30:31;;;;;;;54.17;25.67;;;8.40;81.90;;;;;;4950537;28;20032;-66
2022/03/25 05:32:58;;;;;;;52.58;26.52;;;8.30;81.90;;;;;;4951544;28;20382;-66
2022/03/25 05:35:25;;;;;;;57.88;27.08;;;8.30;82.00;;;;;;4950750;28;20030;-66
2022/03/25 05:37:52;;;;;;;62.33;28.20;;;8.30;82.20;;;;;;4950366;28;20051;-66
2022/03/25 05:40:20;;;;;;;59.95;29.45;;;8.30;82.60;;;;;;4952022;28;20050;-66
2022/03/25 05:42:47;;;;;;;60.97;29.60;;;8.30;82.90;;;;;;4970572;28;20371;-67
2022/03/25 05:45:20;;;;;;;62.13;28.08;;;8.30;83.90;;;;;;4949731;28;20037;-67
2022/03/25 05:47:46;;;;;;;61.72;28.17;;;8.30;83.60;;;;;;4951857;28;20042;-65
2022/03/25 05:50:13;;;;;;;59.67;27.85;;;8.20;83.80;;;;;;4951069;28;20031;-65
2022/03/25 05:52:40;;;;;;;59.92;29.00;;;8.20;84.20;;;;;;4983712;28;20098;-65
2022/03/25 05:55:06;;;;;;;57.97;28.38;;;8.20;84.60;;;;;;5001504;28;20379;-65
2022/03/25 05:57:32;;;;;;;58.22;26.45;;;8.20;84.90;;;;;;4986949;28;20041;-65
2022/03/25 05:59:59;;;;;;;61.45;27.30;;;8.20;85.10;;;;;;4980511;28;20088;-65
2022/03/25 06:02:25;;;;;;;58.08;27.08;;;8.10;85.30;;;;;;4953176;28;20089;-66
2022/03/25 06:04:55;;;;;;;54.22;26.00;;;8.20;85.60;;;;;;4971278;28;20026;-65
2022/03/25 06:07:22;;;;;;;58.67;27.45;;;8.10;85.60;;;;;;4962671;28;20092;-65
2022/03/25 06:09:48;;;;;;;57.22;27.27;;;8.20;85.90;;;;;;4955516;28;20032;-66
2022/03/25 06:12:14;;;;;;;55.70;27.17;;;8.10;86.10;;;;;;4969353;28;20042;-68
2022/03/25 06:14:39;;;;;;;50.90;24.73;;;8.10;86.30;;;;;;4938478;28;20051;-68
2022/03/25 06:17:05;;;;;;;50.72;25.98;;;8.20;86.60;;;;;;4966170;28;20105;-65
2022/03/25 06:19:31;;;;;;;49.67;24.33;;;8.10;86.90;;;;;;4983220;28;20025;-65
2022/03/25 06:21:58;;;;;;;61.50;26.73;;;8.10;87.10;;;;;;4994204;28;20040;-65
2022/03/25 06:24:24;;;;;;;51.63;24.52;;;8.10;87.30;;;;;;4994537;28;20482;-66
2022/03/25 06:26:50;;;;;;;53.22;26.27;;;8.10;87.50;;;;;;4964471;28;20040;-65
2022/03/25 06:29:16;;;;;;;47.72;25.10;;;8.10;87.70;;;;;;4951377;28;20019;-65
2022/03/25 06:31:41;;;;;;;56.90;24.73;;;8.10;87.90;;;;;;4963304;28;20089;-65
2022/03/25 06:34:07;;;;;;;52.13;26.05;;;8.10;88.10;;;;;;4988063;28;20095;-65
2022/03/25 06:36:33;;;;;;;50.10;24.17;;;8.20;88.20;;;;;;4983072;28;20256;-65
2022/03/25 06:38:59;;;;;;;54.35;25.55;;;8.10;88.40;;;;;;4988258;28;20034;-65
2022/03/25 06:41:24;;;;;;;53.78;26.08;;;8.20;88.60;;;;;;4991383;28;20044;-65
2022/03/25 06:43:50;;;;;;;51.78;25.10;;;8.20;88.80;;;;;;4991720;28;20021;-65
2022/03/25 06:46:19;;;;;;;49.03;24.80;;;8.20;89.00;;;;;;4986570;28;20046;-65
2022/03/25 06:48:45;;;;;;;51.92;24.73;;;8.20;89.20;;;;;;4985232;28;20021;-71
2022/03/25 06:51:12;;;;;;;51.53;25.25;;;8.30;89.40;;;;;;4983215;28;20116;-69
2022/03/25 06:53:38;;;;;;;53.45;25.25;;;8.20;89.50;;;;;;4942827;28;20493;-66
2022/03/25 06:56:04;;;;;;;50.85;24.05;;;8.30;90.10;;;;;;4958324;28;20175;-65
2022/03/25 06:58:31;;;;;;;53.28;25.80;;;8.30;89.90;;;;;;4940907;28;20122;-65
2022/03/25 07:00:57;;;;;;;58.83;24.15;;;8.30;90.00;;;;;;4930768;28;20133;-65
2022/03/25 07:03:23;;;;;;;54.13;25.58;;;8.30;90.10;;;;;;4930503;28;20161;-65
2022/03/25 07:05:51;;;;;;;55.33;25.17;;;8.30;90.10;;;;;;4931617;28;20097;-65
2022/03/25 07:08:22;;;;;;;45.22;23.10;;;8.30;90.30;;;;;;4933458;28;20023;-65
2022/03/25 07:10:48;;;;;;;48.72;23.55;;;8.30;90.40;;;;;;4936662;28;20213;-65
2022/03/25 07:13:14;;;;;;;44.42;21.98;;;8.40;90.40;;;;;;4950368;28;20098;-65
2022/03/25 07:15:40;;;;;;;52.20;26.30;;;8.40;90.50;;;;;;4949084;28;20494;-65
2022/03/25 07:18:06;;;;;;;54.67;25.15;;;8.40;90.70;;;;;;4976140;28;20167;-65
2022/03/25 07:20:32;;;;;;;53.10;24.15;;;8.30;90.80;;;;;;4951112;28;20506;-65
2022/03/25 07:22:57;;;;;;;50.15;23.40;;;8.40;91.00;;;;;;4950623;28;20036;-65
2022/03/25 07:25:25;;;;;;;46.55;23.85;;;8.40;91.10;;;;;;4931314;28;20374;-65
2022/03/25 07:27:51;;;;;;;58.10;23.23;;;8.40;91.10;;;;;;4949613;28;20035;-65
2022/03/25 07:30:18;;;;;;;44.20;23.50;;;8.40;91.30;;;;;;4950134;28;20043;-65
2022/03/25 07:32:44;;;;;;;46.75;20.77;;;8.50;91.40;;;;;;4943150;28;20094;-65
2022/03/25 07:35:10;;;;;;;45.60;20.75;;;8.50;91.40;;;;;;4943555;28;20069;-65
2022/03/25 07:37:40;;;;;;;48.63;22.60;;;8.60;91.50;;;;;;4950036;28;20073;-65
2022/03/25 07:40:09;;;;;;;46.85;22.55;;;8.60;91.60;;;;;;4950151;28;20035;-65
2022/03/25 07:42:35;;;;;;;42.40;21.40;;;8.70;91.70;;;;;;4950075;28;20475;-65
2022/03/25 07:45:01;;;;;;;46.13;21.45;;;8.70;91.80;;;;;;4935073;28;20062;-65
2022/03/25 07:47:27;;;;;;;42.75;19.73;;;8.70;91.90;;;;;;4940034;28;20434;-65
2022/03/25 07:49:53;;;;;;;41.65;19.98;;;8.80;91.80;;;;;;4949636;28;20035;-65
2022/03/25 07:52:22;;;;;;;37.03;18.52;;;8.80;91.90;;;;;;4950302;28;20035;-65
2022/03/25 07:54:49;;;;;;;36.45;17.85;;;8.90;91.90;;;;;;4949826;28;20609;-65
2022/03/25 07:57:15;;;;;;;39.17;19.98;;;8.90;91.90;;;;;;4949466;28;20035;-65
2022/03/25 07:59:41;;;;;;;40.45;19.00;;;8.90;91.90;;;;;;4936744;28;20031;-65
2022/03/25 08:02:07;;;;;;;39.20;19.77;;;9.00;92.00;;;;;;4952290;28;20040;-65
2022/03/25 08:04:32;;;;;;;39.75;18.85;;;9.00;92.00;;;;;;4952384;28;20073;-65
2022/03/25 08:06:58;;;;;;;44.53;19.30;;;9.00;92.00;;;;;;4952752;28;20070;-65
2022/03/25 08:09:24;;;;;;;39.92;19.80;;;9.10;91.90;;;;;;4952239;28;20031;-65
2022/03/25 08:11:49;;;;;;;35.22;19.77;;;9.10;91.80;;;;;;4941339;28;20134;-65
2022/03/25 08:14:16;;;;;;;38.38;17.10;;;9.20;91.70;;;;;;4952085;28;20488;-65
2022/03/25 08:16:42;;;;;;;34.28;15.45;;;9.20;91.60;;;;;;4953222;28;20076;-67
2022/03/25 08:19:08;;;;;;;36.50;17.88;;;9.20;91.40;;;;;;4989582;28;20060;-65
2022/03/25 08:21:34;;;;;;;37.30;17.83;;;9.30;91.40;;;;;;4961643;28;20538;-65
2022/03/25 08:29:28;;;;;;;33.25;16.58;;;9.50;91.00;;;;;;4973772;28;20038;-65
2022/03/25 08:31:54;;;;;;;36.63;16.67;;;9.50;90.80;;;;;;4970708;28;20035;-65
2022/03/25 08:34:21;;;;;;;37.80;17.45;;;9.50;90.70;;;;;;4948172;28;20027;-65
2022/03/25 08:36:48;;;;;;;32.75;16.95;;;9.50;90.70;;;;;;4960552;28;20035;-65
2022/03/25 08:39:14;;;;;;;44.17;20.65;;;9.50;90.60;;;;;;4991591;28;20026;-65
2022/03/25 08:41:40;;;;;;;36.65;16.55;;;9.60;90.60;;;;;;4973275;28;20065;-65
2022/03/25 08:44:06;;;;;;;39.63;18.73;;;9.70;90.60;;;;;;4985275;28;20062;-65
2022/03/25 08:46:34;;;;;;;39.65;18.95;;;9.70;90.50;;;;;;4976285;28;20432;-65
2022/03/25 08:49:00;;;;;;;39.92;19.20;;;9.80;90.40;;;;;;4943800;28;20050;-65
2022/03/25 08:51:27;;;;;;;35.20;15.38;;;9.80;90.30;;;;;;4957399;28;20043;-65
2022/03/25 08:53:53;;;;;;;39.30;16.02;;;9.90;90.20;;;;;;4951779;28;20498;-65
2022/03/25 08:56:24;;;;;;;41.90;19.20;;;9.90;90.10;;;;;;4938741;28;20035;-65
2022/03/25 08:58:54;;;;;;;36.53;17.25;;;10.00;90.10;;;;;;4941719;28;20047;-65
2022/03/25 09:01:22;;;;;;;31.38;16.55;;;10.00;90.00;;;;;;4937368;28;20059;-65
2022/03/25 09:03:47;;;;;;;44.30;18.15;;;10.10;89.80;;;;;;5026498;28;20091;-65
2022/03/25 09:06:13;;;;;;;40.63;18.10;;;10.10;89.60;;;;;;4960192;28;20035;-65
2022/03/25 09:08:39;;;;;;;46.42;19.35;;;10.30;89.40;;;;;;4951805;28;20035;-65
2022/03/25 09:11:04;;;;;;;36.53;16.60;;;10.30;89.30;;;;;;4952088;28;20031;-65
2022/03/25 09:13:30;;;;;;;34.80;16.15;;;10.40;89.00;;;;;;4973497;28;20031;-65
2022/03/25 09:15:56;;;;;;;34.25;14.38;;;10.40;88.50;;;;;;4960915;28;20047;-65
2022/03/25 09:18:24;;;;;;;28.48;14.77;;;10.50;88.10;;;;;;4985745;28;20017;-65
2022/03/25 09:20:50;;;;;;;33.78;15.15;;;10.60;87.60;;;;;;4968990;28;20143;-65
2022/03/25 09:23:15;;;;;;;33.13;15.18;;;10.60;87.30;;;;;;4979127;28;20172;-65
2022/03/25 09:25:41;;;;;;;38.38;15.65;;;10.60;87.00;;;;;;4986172;28;20083;-65
2022/03/25 09:28:07;;;;;;;36.95;16.88;;;10.70;87.00;;;;;;4968190;28;20034;-67
2022/03/25 09:30:33;;;;;;;30.40;14.48;;;10.70;87.00;;;;;;4987408;28;20023;-65
2022/03/25 09:32:58;;;;;;;38.80;14.93;;;10.80;87.00;;;;;;4951233;28;20422;-65
2022/03/25 09:35:24;;;;;;;39.30;16.88;;;10.80;86.70;;;;;;4950921;28;20028;-65
2022/03/25 09:37:51;;;;;;;37.13;17.55;;;10.80;86.20;;;;;;4936286;28;20031;-65
2022/03/25 09:40:20;;;;;;;37.00;14.90;;;10.90;84.80;;;;;;4943824;28;20438;-65
2022/03/25 09:42:46;;;;;;;28.90;14.50;;;10.90;84.00;;;;;;4945003;28;20066;-65
2022/03/25 09:45:15;;;;;;;39.05;13.75;;;11.00;84.00;;;;;;4930897;28;20032;-65
2022/03/25 09:47:41;;;;;;;37.03;14.65;;;11.00;83.20;;;;;;4950169;28;20327;-65
2022/03/25 09:50:13;;;;;;;29.55;13.20;;;11.10;82.80;;;;;;4950434;28;20077;-65
2022/03/25 09:52:40;;;;;;;37.70;15.40;;;11.20;82.40;;;;;;4931704;28;20040;-65
2022/03/25 09:55:07;;;;;;;30.15;13.85;;;11.30;82.10;;;;;;4945321;28;20070;-65
2022/03/25 09:57:36;;;;;;;36.47;14.93;;;11.30;82.00;;;;;;4931601;28;20055;-65
2022/03/25 10:00:05;;;;;;;32.40;13.63;;;11.40;81.30;;;;;;4944466;28;20498;-68
2022/03/25 10:02:38;;;;;;;26.55;11.07;;;11.50;81.30;;;;;;4952577;28;20421;-65
2022/03/25 10:05:20;;;;;;;36.55;13.20;;;11.60;81.20;;;;;;4958521;28;20069;-65
2022/03/25 10:07:51;;;;;;;32.55;13.27;;;11.60;79.90;;;;;;4947543;28;20483;-65
2022/03/25 10:10:19;;;;;;;27.50;11.88;;;11.70;79.90;;;;;;4961475;28;20031;-65
2022/03/25 10:12:48;;;;;;;31.08;13.23;;;11.80;79.80;;;;;;4950189;28;20043;-65
2022/03/25 10:15:25;;;;;;;42.15;14.98;;;11.80;79.60;;;;;;4961288;28;20034;-65
2022/03/25 10:17:54;;;;;;;34.22;14.38;;;11.90;79.00;;;;;;4959772;28;20373;-65
2022/03/25 10:20:26;;;;;;;30.17;14.55;;;12.00;79.40;;;;;;4943044;28;20040;-65
2022/03/25 10:23:04;;;;;;;28.83;12.25;;;12.00;77.20;;;;;;4968381;28;20037;-66
2022/03/25 10:25:32;;;;;;;25.38;11.93;;;12.10;77.40;;;;;;4933731;28;20070;-67
2022/03/25 10:27:58;;;;;;;35.25;12.75;;;12.10;77.50;;;;;;4950531;28;20550;-66
2022/03/25 10:30:38;;;;;;;37.75;14.02;;;12.20;77.40;;;;;;4961175;28;20107;-66
2022/03/25 10:33:20;;;;;;;26.52;11.82;;;12.20;76.50;;;;;;4971569;28;20021;-67
2022/03/25 10:35:53;;;;;;;28.23;12.65;;;12.30;75.80;;;;;;4944326;28;21360;-67
2022/03/25 10:38:21;;;;;;;31.60;13.45;;;12.40;76.30;;;;;;4970720;28;20026;-67
2022/03/25 10:40:57;;;;;;;28.05;11.20;;;12.40;76.90;;;;;;4957937;28;20051;-68
2022/03/25 10:43:24;;;;;;;30.35;12.07;;;12.40;75.40;;;;;;4966834;28;20381;-67
2022/03/25 10:45:50;;;;;;;33.22;12.88;;;12.40;74.70;;;;;;5011839;28;20028;-67
2022/03/25 10:48:22;;;;;;;32.92;12.55;;;12.50;76.30;;;;;;5000289;28;20480;-66
2022/03/25 10:51:07;;;;;;;32.13;13.20;;;12.60;76.30;;;;;;4951512;28;20040;-66
2022/03/25 10:53:34;;;;;;;27.75;10.75;;;12.60;75.30;;;;;;4970073;28;20501;-66
2022/03/25 10:56:06;;;;;;;29.92;11.13;;;12.60;76.40;;;;;;4958967;28;20029;-66
2022/03/25 10:58:34;;;;;;;26.42;12.00;;;12.70;77.00;;;;;;4984360;28;20495;-66
2022/03/25 11:01:00;;;;;;;29.08;13.02;;;12.70;77.10;;;;;;5002644;28;20108;-67
2022/03/25 11:03:27;;;;;;;28.45;12.55;;;12.80;76.90;;;;;;4942726;28;20047;-65
2022/03/25 11:05:53;;;;;;;30.92;14.38;;;12.80;76.20;;;;;;4941731;28;20467;-67
2022/03/25 11:08:19;;;;;;;36.75;13.07;;;12.80;75.60;;;;;;4946167;28;20665;-65
2022/03/25 11:10:47;;;;;;;29.17;13.45;;;12.90;74.60;;;;;;4950401;28;20035;-65
2022/03/25 11:13:13;;;;;;;24.85;10.73;;;13.00;74.10;;;;;;4951459;28;20118;-65
2022/03/25 11:15:39;;;;;;;27.63;10.70;;;13.00;73.40;;;;;;4938384;28;20165;-64
2022/03/25 11:18:06;;;;;;;31.58;14.45;;;13.10;74.20;;;;;;4969012;28;20029;-65
2022/03/25 11:20:32;;;;;;;28.85;12.18;;;13.10;72.60;;;;;;4950321;28;20047;-65
2022/03/25 11:23:16;;;;;;;27.67;11.80;;;13.20;71.80;;;;;;5007875;28;20041;-65
2022/03/25 11:25:44;;;;;;;;;;;13.20;73.20;;;;;;4949557;28;20032;-65
2022/03/25 11:28:15;;;;;;;26.05;12.25;;;13.20;76.40;;;;;;4934051;28;19911;-65
2022/03/25 11:30:41;;;;;;;23.10;10.20;;;13.20;74.30;;;;;;4946820;28;20027;-65
2022/03/25 11:33:07;;;;;;;24.52;11.68;;;13.30;75.30;;;;;;4948775;28;20046;-65
2022/03/25 11:35:39;;;;;;;26.88;11.57;;;13.30;74.40;;;;;;4960681;28;20031;-68
2022/03/25 11:38:14;;;;;;;31.20;14.48;;;13.30;75.80;;;;;;4951344;28;20071;-67
2022/03/25 11:40:42;;;;;;;35.90;16.00;;;13.30;74.70;;;;;;4962795;28;20055;-67
2022/03/25 11:43:18;;;;;;;26.27;13.32;;;13.40;74.40;;;;;;4977202;28;20035;-67
2022/03/25 11:46:00;;;;;;;32.25;14.25;;;13.40;74.00;;;;;;4943972;28;20047;-67
2022/03/25 11:48:26;;;;;;;23.77;11.85;;;13.50;74.60;;;;;;4932432;28;20089;-67
2022/03/25 11:50:56;;;;;;;33.83;14.57;;;13.60;74.70;;;;;;4949252;28;20056;-67
2022/03/25 11:53:22;;;;;;;25.30;12.95;;;13.60;74.10;;;;;;4964045;28;20033;-67
2022/03/25 11:56:07;;;;;;;28.17;13.75;;;13.60;75.20;;;;;;4969444;28;20582;-67
2022/03/25 11:58:36;;;;;;;25.63;11.23;;;13.60;75.10;;;;;;4963249;28;20093;-67
2022/03/25 12:01:22;;;;;;;29.75;14.40;;;13.70;76.10;;;;;;4999154;28;20138;-67
2022/03/25 12:03:58;;;;;;;29.20;15.77;;;13.60;75.00;;;;;;4968336;28;20050;-67
2022/03/25 12:06:32;;;;;;;29.92;15.07;;;13.70;73.10;;;;;;4963440;28;20054;-67
2022/03/25 12:09:07;;;;;;;32.13;12.52;;;13.70;73.30;;;;;;4969454;28;20043;-67
2022/03/25 12:11:53;;;;;;;26.88;12.32;;;13.70;72.20;;;;;;4948728;28;20055;-67
2022/03/25 12:14:26;;;;;;;35.10;14.18;;;13.70;69.70;;;;;;4949184;28;20043;-67
2022/03/25 12:16:53;;;;;;;37.42;15.20;;;13.70;70.80;;;;;;4939478;29;20059;-67
2022/03/25 12:19:31;;;;;;;27.48;13.35;;;13.80;70.20;;;;;;4948111;28;20376;-67
2022/03/25 12:22:25;;;;;;;28.77;12.32;;;13.90;68.20;;;;;;4964522;28;20103;-68
2022/03/25 12:24:52;;;;;;;31.92;13.93;;;13.90;70.20;;;;;;4953879;28;20045;-69
2022/03/25 12:27:20;;;;;;;28.50;12.82;;;13.90;71.20;;;;;;4950026;28;20035;-68
2022/03/25 12:29:48;;;;;;;32.35;14.82;;;14.00;71.60;;;;;;4960023;28;20458;-68
2022/03/25 12:32:16;;;;;;;29.02;12.85;;;14.00;69.40;;;;;;4940836;28;20040;-68
2022/03/25 12:35:04;;;;;;;27.50;11.27;;;14.10;69.70;;;;;;5022758;28;20108;-69
2022/03/25 12:37:55;;;;;;;27.90;10.93;;;14.10;69.40;;;;;;4983168;28;20235;-68
2022/03/25 12:40:27;;;;;;;20.35;10.05;;;14.10;68.80;;;;;;4929412;28;20036;-68